sensor_id;sensor_type;location;lat;lon;timestamp;pressure;altitude;pressure_sealevel;temperature;humidity
45813;BME280;31519;45.408;10.962;2023-08-12T00:01:02;101338.53;;;28.39;45.92
45813;BME280;31519;45.408;10.962;2023-08-12T00:03:33;101343.56;;;28.44;46.44
45813;BME280;31519;45.408;10.962;2023-08-12T00:06:02;101333.47;;;28.34;46.44
45813;BME280;31519;45.408;10.962;2023-08-12T00:08:33;101340.59;;;28.25;46.88
45813;BME280;31519;45.408;10.962;2023-08-12T00:11:01;101341.22;;;28.43;47.05
45813;BME280;31519;45.408;10.962;2023-08-12T00:13:31;101334.38;;;28.20;48.24
45813;BME280;31519;45.408;10.962;2023-08-12T00:15:59;101330.78;;;28.31;48.12
45813;BME280;31519;45.408;10.962;2023-08-12T00:18:27;101323.84;;;28.15;48.00
45813;BME280;31519;45.408;10.962;2023-08-12T00:20:56;101333.28;;;28.07;48.34
45813;BME280;31519;45.408;10.962;2023-08-12T00:23:25;101325.78;;;28.15;47.75
45813;BME280;31519;45.408;10.962;2023-08-12T00:25:53;101329.53;;;27.84;48.60
45813;BME280;31519;45.408;10.962;2023-08-12T00:28:25;101324.88;;;27.81;48.41
45813;BME280;31519;45.408;10.962;2023-08-12T00:30:53;101324.88;;;27.77;48.31
45813;BME280;31519;45.408;10.962;2023-08-12T00:33:21;101322.03;;;27.91;47.82
45813;BME280;31519;45.408;10.962;2023-08-12T00:35:49;101316.94;;;27.93;47.83
45813;BME280;31519;45.408;10.962;2023-08-12T00:38:17;101320.50;;;27.87;47.76
45813;BME280;31519;45.408;10.962;2023-08-12T00:40:46;101320.63;;;27.69;48.25
45813;BME280;31519;45.408;10.962;2023-08-12T00:43:13;101317.22;;;27.44;48.97
45813;BME280;31519;45.408;10.962;2023-08-12T00:45:42;101328.97;;;27.37;49.02
45813;BME280;31519;45.408;10.962;2023-08-12T00:48:10;101322.72;;;27.37;48.93
45813;BME280;31519;45.408;10.962;2023-08-12T00:50:41;101329.25;;;27.64;48.39
45813;BME280;31519;45.408;10.962;2023-08-12T00:53:09;101326.97;;;27.52;48.65
45813;BME280;31519;45.408;10.962;2023-08-12T00:55:38;101329.31;;;27.46;49.27
45813;BME280;31519;45.408;10.962;2023-08-12T00:58:07;101321.13;;;27.43;49.45
45813;BME280;31519;45.408;10.962;2023-08-12T01:00:36;101323.94;;;27.25;50.02
45813;BME280;31519;45.408;10.962;2023-08-12T01:03:05;101322.78;;;27.22;50.50
45813;BME280;31519;45.408;10.962;2023-08-12T01:05:33;101325.19;;;27.10;51.32
45813;BME280;31519;45.408;10.962;2023-08-12T01:08:04;101318.94;;;27.13;51.59
45813;BME280;31519;45.408;10.962;2023-08-12T01:10:36;101320.47;;;27.21;51.59
45813;BME280;31519;45.408;10.962;2023-08-12T01:13:13;101320.38;;;27.31;51.53
45813;BME280;31519;45.408;10.962;2023-08-12T01:15:45;101318.13;;;27.16;52.11
45813;BME280;31519;45.408;10.962;2023-08-12T01:18:15;101310.78;;;26.92;52.46
45813;BME280;31519;45.408;10.962;2023-08-12T01:20:44;101310.78;;;26.99;52.47
45813;BME280;31519;45.408;10.962;2023-08-12T01:23:15;101306.03;;;27.10;52.24
45813;BME280;31519;45.408;10.962;2023-08-12T01:25:44;101309.56;;;27.07;52.44
45813;BME280;31519;45.408;10.962;2023-08-12T01:28:12;101311.91;;;27.12;52.66
45813;BME280;31519;45.408;10.962;2023-08-12T01:30:56;101307.63;;;27.04;53.22
45813;BME280;31519;45.408;10.962;2023-08-12T01:33:30;101300.97;;;27.12;53.30
45813;BME280;31519;45.408;10.962;2023-08-12T01:36:02;101306.47;;;26.98;53.84
45813;BME280;31519;45.408;10.962;2023-08-12T01:38:33;101304.91;;;27.04;54.17
45813;BME280;31519;45.408;10.962;2023-08-12T01:41:02;101295.94;;;26.82;55.03
45813;BME280;31519;45.408;10.962;2023-08-12T01:43:29;101299.06;;;26.91;55.33
45813;BME280;31519;45.408;10.962;2023-08-12T01:45:58;101302.19;;;26.82;55.47
45813;BME280;31519;45.408;10.962;2023-08-12T01:48:26;101293.59;;;26.84;55.41
45813;BME280;31519;45.408;10.962;2023-08-12T01:50:54;101288.59;;;26.58;56.38
45813;BME280;31519;45.408;10.962;2023-08-12T01:53:22;101294.88;;;26.44;57.17
45813;BME280;31519;45.408;10.962;2023-08-12T01:55:51;101295.25;;;26.53;56.75
45813;BME280;31519;45.408;10.962;2023-08-12T01:58:19;101287.84;;;26.32;57.72
45813;BME280;31519;45.408;10.962;2023-08-12T02:00:48;101299.94;;;26.42;57.20
45813;BME280;31519;45.408;10.962;2023-08-12T02:03:16;101294.09;;;26.33;57.39
45813;BME280;31519;45.408;10.962;2023-08-12T02:05:44;101290.97;;;26.38;57.34
45813;BME280;31519;45.408;10.962;2023-08-12T02:08:12;101287.06;;;26.42;56.63
45813;BME280;31519;45.408;10.962;2023-08-12T02:10:41;101283.13;;;26.40;57.37
45813;BME280;31519;45.408;10.962;2023-08-12T02:13:08;101287.84;;;26.36;57.15
45813;BME280;31519;45.408;10.962;2023-08-12T02:15:37;101275.34;;;26.28;57.57
45813;BME280;31519;45.408;10.962;2023-08-12T02:18:11;101290.97;;;26.31;57.81
45813;BME280;31519;45.408;10.962;2023-08-12T02:20:42;101280.78;;;26.14;58.52
45813;BME280;31519;45.408;10.962;2023-08-12T02:23:10;101278.09;;;26.28;58.32
45813;BME280;31519;45.408;10.962;2023-08-12T02:25:39;101275.72;;;26.51;57.01
45813;BME280;31519;45.408;10.962;2023-08-12T02:28:07;101283.13;;;26.40;57.75
45813;BME280;31519;45.408;10.962;2023-08-12T02:30:35;101269.88;;;26.45;57.70
45813;BME280;31519;45.408;10.962;2023-08-12T02:33:03;101276.50;;;26.44;57.30
45813;BME280;31519;45.408;10.962;2023-08-12T02:35:32;101274.97;;;26.36;57.51
45813;BME280;31519;45.408;10.962;2023-08-12T02:38:00;101276.13;;;26.35;57.51
45813;BME280;31519;45.408;10.962;2023-08-12T02:40:29;101269.09;;;26.45;57.67
45813;BME280;31519;45.408;10.962;2023-08-12T02:42:57;101270.69;;;26.28;58.53
45813;BME280;31519;45.408;10.962;2023-08-12T02:45:25;101264.44;;;26.31;58.57
45813;BME280;31519;45.408;10.962;2023-08-12T02:47:53;101267.97;;;26.25;59.66
45813;BME280;31519;45.408;10.962;2023-08-12T02:50:21;101264.03;;;26.22;59.26
45813;BME280;31519;45.408;10.962;2023-08-12T02:52:49;101258.56;;;26.12;59.82
45813;BME280;31519;45.408;10.962;2023-08-12T02:55:17;101256.25;;;26.21;59.85
45813;BME280;31519;45.408;10.962;2023-08-12T02:57:45;101269.88;;;26.07;60.92
45813;BME280;31519;45.408;10.962;2023-08-12T03:00:14;101263.66;;;26.20;60.63
45813;BME280;31519;45.408;10.962;2023-08-12T03:02:42;101258.16;;;25.99;61.61
45813;BME280;31519;45.408;10.962;2023-08-12T03:05:11;101262.06;;;25.94;61.86
45813;BME280;31519;45.408;10.962;2023-08-12T03:07:38;101254.28;;;25.89;62.23
45813;BME280;31519;45.408;10.962;2023-08-12T03:10:07;101257.38;;;25.77;62.85
45813;BME280;31519;45.408;10.962;2023-08-12T03:12:35;101248.44;;;25.87;62.86
45813;BME280;31519;45.408;10.962;2023-08-12T03:15:05;101246.09;;;25.82;63.23
45813;BME280;31519;45.408;10.962;2023-08-12T03:17:34;101253.50;;;25.82;63.23
45813;BME280;31519;45.408;10.962;2023-08-12T03:20:04;101245.28;;;25.71;63.63
45813;BME280;31519;45.408;10.962;2023-08-12T03:22:33;101250.75;;;25.64;64.21
45813;BME280;31519;45.408;10.962;2023-08-12T03:25:01;101247.25;;;25.71;64.00
45813;BME280;31519;45.408;10.962;2023-08-12T03:27:29;101253.50;;;25.75;64.39
45813;BME280;31519;45.408;10.962;2023-08-12T03:29:58;101246.47;;;25.77;64.18
45813;BME280;31519;45.408;10.962;2023-08-12T03:32:26;101252.72;;;25.88;63.98
45813;BME280;31519;45.408;10.962;2023-08-12T03:34:56;101248.00;;;25.71;64.77
45813;BME280;31519;45.408;10.962;2023-08-12T03:37:24;101247.25;;;25.60;65.06
45813;BME280;31519;45.408;10.962;2023-08-12T03:39:53;101241.00;;;25.77;64.70
45813;BME280;31519;45.408;10.962;2023-08-12T03:42:21;101253.47;;;25.64;65.47
45813;BME280;31519;45.408;10.962;2023-08-12T03:44:50;101255.03;;;25.65;65.40
45813;BME280;31519;45.408;10.962;2023-08-12T03:47:18;101252.63;;;25.46;65.82
45813;BME280;31519;45.408;10.962;2023-08-12T03:49:51;101252.31;;;25.72;64.61
45813;BME280;31519;45.408;10.962;2023-08-12T03:52:19;101253.47;;;25.71;65.18
45813;BME280;31519;45.408;10.962;2023-08-12T03:54:47;101256.19;;;25.71;64.97
45813;BME280;31519;45.408;10.962;2023-08-12T03:57:15;101244.16;;;25.79;64.41
45813;BME280;31519;45.408;10.962;2023-08-12T03:59:43;101260.50;;;25.72;65.25
45813;BME280;31519;45.408;10.962;2023-08-12T04:02:11;101251.53;;;25.61;65.19
45813;BME280;31519;45.408;10.962;2023-08-12T04:04:40;101256.97;;;25.57;65.53
45813;BME280;31519;45.408;10.962;2023-08-12T04:07:09;101251.16;;;25.73;65.30
45813;BME280;31519;45.408;10.962;2023-08-12T04:09:38;101255.84;;;25.87;64.91
45813;BME280;31519;45.408;10.962;2023-08-12T04:12:05;101257.00;;;25.96;64.55
45813;BME280;31519;45.408;10.962;2023-08-12T04:14:34;101257.00;;;25.82;65.21
45813;BME280;31519;45.408;10.962;2023-08-12T04:17:02;101254.28;;;25.86;64.84
45813;BME280;31519;45.408;10.962;2023-08-12T04:19:31;101260.13;;;26.06;64.32
45813;BME280;31519;45.408;10.962;2023-08-12T04:21:59;101254.28;;;26.03;64.36
45813;BME280;31519;45.408;10.962;2023-08-12T04:24:29;101253.91;;;25.98;64.24
45813;BME280;31519;45.408;10.962;2023-08-12T04:26:57;101256.22;;;25.99;64.46
45813;BME280;31519;45.408;10.962;2023-08-12T04:29:27;101257.00;;;25.82;64.77
45813;BME280;31519;45.408;10.962;2023-08-12T04:31:55;101255.84;;;25.80;64.86
45813;BME280;31519;45.408;10.962;2023-08-12T04:34:23;101255.81;;;25.66;65.20
45813;BME280;31519;45.408;10.962;2023-08-12T04:36:52;101255.41;;;25.64;65.85
45813;BME280;31519;45.408;10.962;2023-08-12T04:39:21;101249.59;;;25.83;65.10
45813;BME280;31519;45.408;10.962;2023-08-12T04:41:50;101251.16;;;25.84;65.35
45813;BME280;31519;45.408;10.962;2023-08-12T04:44:18;101253.09;;;26.08;64.23
45813;BME280;31519;45.408;10.962;2023-08-12T04:46:47;101250.78;;;26.24;63.85
45813;BME280;31519;45.408;10.962;2023-08-12T04:49:17;101253.13;;;26.33;63.20
45813;BME280;31519;45.408;10.962;2023-08-12T04:51:44;101260.13;;;26.27;63.02
45813;BME280;31519;45.408;10.962;2023-08-12T04:54:13;101255.06;;;26.11;63.56
45813;BME280;31519;45.408;10.962;2023-08-12T04:56:42;101247.63;;;26.19;63.21
45813;BME280;31519;45.408;10.962;2023-08-12T04:59:11;101257.41;;;26.16;63.25
45813;BME280;31519;45.408;10.962;2023-08-12T05:01:39;101262.88;;;26.37;62.84
45813;BME280;31519;45.408;10.962;2023-08-12T05:04:43;101251.19;;;26.30;63.07
45813;BME280;31519;45.408;10.962;2023-08-12T05:07:14;101259.38;;;26.23;63.43
45813;BME280;31519;45.408;10.962;2023-08-12T05:09:42;101255.06;;;26.08;64.07
45813;BME280;31519;45.408;10.962;2023-08-12T05:12:15;101265.19;;;26.11;64.02
45813;BME280;31519;45.408;10.962;2023-08-12T05:14:44;101259.78;;;26.21;63.75
45813;BME280;31519;45.408;10.962;2023-08-12T05:17:12;101254.28;;;26.32;62.89
45813;BME280;31519;45.408;10.962;2023-08-12T05:19:40;101257.75;;;26.54;62.18
45813;BME280;31519;45.408;10.962;2023-08-12T05:22:08;101253.06;;;26.58;61.85
45813;BME280;31519;45.408;10.962;2023-08-12T05:24:37;101258.13;;;26.63;61.44
45813;BME280;31519;45.408;10.962;2023-08-12T05:27:05;101258.13;;;26.59;60.61
45813;BME280;31519;45.408;10.962;2023-08-12T05:29:33;101265.16;;;26.64;60.99
45813;BME280;31519;45.408;10.962;2023-08-12T05:32:01;101262.44;;;26.60;61.07
45813;BME280;31519;45.408;10.962;2023-08-12T05:34:29;101256.16;;;26.70;60.76
45813;BME280;31519;45.408;10.962;2023-08-12T05:36:57;101258.06;;;26.87;59.77
45813;BME280;31519;45.408;10.962;2023-08-12T05:39:25;101268.56;;;27.07;59.46
45813;BME280;31519;45.408;10.962;2023-08-12T05:41:53;101269.31;;;27.11;59.04
45813;BME280;31519;45.408;10.962;2023-08-12T05:44:21;101270.94;;;26.98;59.51
45813;BME280;31519;45.408;10.962;2023-08-12T05:46:51;101264.22;;;27.09;59.43
45813;BME280;31519;45.408;10.962;2023-08-12T05:49:19;101269.25;;;27.18;59.37
45813;BME280;31519;45.408;10.962;2023-08-12T05:51:47;101257.81;;;27.44;58.61
45813;BME280;31519;45.408;10.962;2023-08-12T05:54:15;101260.50;;;27.58;58.26
45813;BME280;31519;45.408;10.962;2023-08-12T05:56:43;101267.84;;;27.65;57.70
45813;BME280;31519;45.408;10.962;2023-08-12T05:59:11;101259.72;;;27.54;57.63
45813;BME280;31519;45.408;10.962;2023-08-12T06:01:39;101263.19;;;27.62;57.13
45813;BME280;31519;45.408;10.962;2023-08-12T06:04:07;101255.19;;;27.85;56.74
45813;BME280;31519;45.408;10.962;2023-08-12T06:06:35;101268.16;;;27.77;56.83
45813;BME280;31519;45.408;10.962;2023-08-12T06:09:03;101263.22;;;27.58;56.79
45813;BME280;31519;45.408;10.962;2023-08-12T06:11:31;101264.81;;;27.52;58.09
45813;BME280;31519;45.408;10.962;2023-08-12T06:13:59;101256.22;;;27.47;57.24
45813;BME280;31519;45.408;10.962;2023-08-12T06:16:27;101259.53;;;27.79;56.96
45813;BME280;31519;45.408;10.962;2023-08-12T06:18:55;101264.00;;;27.55;57.99
45813;BME280;31519;45.408;10.962;2023-08-12T06:21:23;101263.34;;;27.30;58.12
45813;BME280;31519;45.408;10.962;2023-08-12T06:23:51;101259.13;;;27.15;58.85
45813;BME280;31519;45.408;10.962;2023-08-12T06:26:19;101261.44;;;27.23;58.91
45813;BME280;31519;45.408;10.962;2023-08-12T06:28:47;101261.66;;;27.57;57.07
45813;BME280;31519;45.408;10.962;2023-08-12T06:31:15;101257.97;;;27.82;55.92
45813;BME280;31519;45.408;10.962;2023-08-12T06:33:43;101258.81;;;27.71;56.64
45813;BME280;31519;45.408;10.962;2023-08-12T06:36:11;101265.66;;;27.39;56.88
45813;BME280;31519;45.408;10.962;2023-08-12T06:38:39;101272.88;;;27.73;56.37
45813;BME280;31519;45.408;10.962;2023-08-12T06:41:07;101271.41;;;28.10;55.26
45813;BME280;31519;45.408;10.962;2023-08-12T06:43:35;101267.47;;;28.55;53.92
45813;BME280;31519;45.408;10.962;2023-08-12T06:46:03;101265.34;;;28.36;53.22
45813;BME280;31519;45.408;10.962;2023-08-12T06:48:31;101265.19;;;28.06;54.34
45813;BME280;31519;45.408;10.962;2023-08-12T06:50:59;101257.56;;;27.83;53.30
45813;BME280;31519;45.408;10.962;2023-08-12T06:53:27;101268.56;;;28.28;51.01
45813;BME280;31519;45.408;10.962;2023-08-12T06:55:55;101265.34;;;28.33;48.09
45813;BME280;31519;45.408;10.962;2023-08-12T06:58:23;101267.56;;;28.48;46.43
45813;BME280;31519;45.408;10.962;2023-08-12T07:00:51;101262.34;;;28.61;44.63
45813;BME280;31519;45.408;10.962;2023-08-12T07:03:21;101264.31;;;28.23;43.41
45813;BME280;31519;45.408;10.962;2023-08-12T07:05:49;101267.78;;;28.64;42.69
45813;BME280;31519;45.408;10.962;2023-08-12T07:08:17;101262.09;;;28.86;45.71
45813;BME280;31519;45.408;10.962;2023-08-12T07:10:45;101261.06;;;29.64;44.13
45813;BME280;31519;45.408;10.962;2023-08-12T07:13:13;101264.09;;;29.96;43.76
45813;BME280;31519;45.408;10.962;2023-08-12T07:15:41;101262.41;;;30.25;42.77
45813;BME280;31519;45.408;10.962;2023-08-12T07:18:09;101264.97;;;29.89;45.66
45813;BME280;31519;45.408;10.962;2023-08-12T07:20:37;101267.09;;;29.78;46.51
45813;BME280;31519;45.408;10.962;2023-08-12T07:23:05;101262.50;;;29.45;48.23
45813;BME280;31519;45.408;10.962;2023-08-12T07:25:33;101257.41;;;28.83;50.49
45813;BME280;31519;45.408;10.962;2023-08-12T07:28:01;101263.31;;;28.81;50.94
45813;BME280;31519;45.408;10.962;2023-08-12T07:30:29;101266.56;;;29.33;49.19
45813;BME280;31519;45.408;10.962;2023-08-12T07:32:57;101254.22;;;29.99;47.79
45813;BME280;31519;45.408;10.962;2023-08-12T07:35:26;101264.09;;;30.19;46.08
45813;BME280;31519;45.408;10.962;2023-08-12T07:37:54;101261.94;;;30.07;46.25
45813;BME280;31519;45.408;10.962;2023-08-12T07:40:22;101257.72;;;29.76;45.94
45813;BME280;31519;45.408;10.962;2023-08-12T07:42:50;101268.31;;;29.50;45.81
45813;BME280;31519;45.408;10.962;2023-08-12T07:45:18;101268.91;;;29.88;44.83
45813;BME280;31519;45.408;10.962;2023-08-12T07:47:46;101263.50;;;29.81;44.27
45813;BME280;31519;45.408;10.962;2023-08-12T07:50:15;101265.59;;;29.47;45.22
45813;BME280;31519;45.408;10.962;2023-08-12T07:52:42;101271.06;;;29.50;43.10
45813;BME280;31519;45.408;10.962;2023-08-12T07:55:11;101263.97;;;29.76;42.36
45813;BME280;31519;45.408;10.962;2023-08-12T07:57:40;101269.75;;;29.59;43.26
45813;BME280;31519;45.408;10.962;2023-08-12T08:00:08;101265.25;;;29.15;44.58
45813;BME280;31519;45.408;10.962;2023-08-12T08:02:37;101267.41;;;29.57;45.25
45813;BME280;31519;45.408;10.962;2023-08-12T08:05:06;101268.09;;;29.38;46.44
45813;BME280;31519;45.408;10.962;2023-08-12T08:07:34;101266.72;;;30.03;44.27
45813;BME280;31519;45.408;10.962;2023-08-12T08:10:03;101268.34;;;29.47;43.69
45813;BME280;31519;45.408;10.962;2023-08-12T08:12:31;101266.28;;;29.55;43.77
45813;BME280;31519;45.408;10.962;2023-08-12T08:14:59;101263.31;;;30.62;41.67
45813;BME280;31519;45.408;10.962;2023-08-12T08:17:26;101268.34;;;30.44;42.78
45813;BME280;31519;45.408;10.962;2023-08-12T08:19:57;101264.88;;;29.70;41.93
45813;BME280;31519;45.408;10.962;2023-08-12T08:22:24;101264.03;;;30.23;41.63
45813;BME280;31519;45.408;10.962;2023-08-12T08:24:53;101265.44;;;30.74;40.46
45813;BME280;31519;45.408;10.962;2023-08-12T08:27:20;101259.38;;;30.39;40.50
45813;BME280;31519;45.408;10.962;2023-08-12T08:29:49;101269.94;;;29.98;43.84
45813;BME280;31519;45.408;10.962;2023-08-12T08:32:16;101282.88;;;29.74;46.42
45813;BME280;31519;45.408;10.962;2023-08-12T08:34:45;101268.81;;;29.69;46.86
45813;BME280;31519;45.408;10.962;2023-08-12T08:37:13;101271.00;;;29.54;46.67
45813;BME280;31519;45.408;10.962;2023-08-12T08:39:41;101263.88;;;29.83;45.50
45813;BME280;31519;45.408;10.962;2023-08-12T08:42:09;101262.81;;;30.47;44.71
45813;BME280;31519;45.408;10.962;2023-08-12T08:44:38;101262.41;;;30.25;45.80
45813;BME280;31519;45.408;10.962;2023-08-12T08:47:08;101269.28;;;29.90;46.23
45813;BME280;31519;45.408;10.962;2023-08-12T08:49:37;101265.38;;;30.34;44.88
45813;BME280;31519;45.408;10.962;2023-08-12T08:52:05;101263.69;;;30.64;43.45
45813;BME280;31519;45.408;10.962;2023-08-12T08:54:33;101254.69;;;30.17;44.58
45813;BME280;31519;45.408;10.962;2023-08-12T08:57:01;101259.66;;;30.68;43.52
45813;BME280;31519;45.408;10.962;2023-08-12T08:59:46;101251.91;;;30.40;43.69
45813;BME280;31519;45.408;10.962;2023-08-12T09:56:38;101235.25;;;32.68;40.38
45813;BME280;31519;45.408;10.962;2023-08-12T09:59:07;101232.44;;;32.97;39.65
45813;BME280;31519;45.408;10.962;2023-08-12T10:01:35;101232.25;;;32.34;40.39
45813;BME280;31519;45.408;10.962;2023-08-12T10:04:05;101235.97;;;32.97;39.94
45813;BME280;31519;45.408;10.962;2023-08-12T10:06:37;101230.56;;;32.07;41.46
45813;BME280;31519;45.408;10.962;2023-08-12T10:09:06;101226.19;;;31.94;42.16
45813;BME280;31519;45.408;10.962;2023-08-12T10:11:36;101228.06;;;30.76;44.85
45813;BME280;31519;45.408;10.962;2023-08-12T10:14:04;101224.31;;;31.75;43.61
45813;BME280;31519;45.408;10.962;2023-08-12T10:16:31;101220.63;;;31.13;44.41
45813;BME280;31519;45.408;10.962;2023-08-12T10:19:00;101211.84;;;31.70;43.19
45813;BME280;31519;45.408;10.962;2023-08-12T10:21:29;101216.50;;;32.18;41.85
45813;BME280;31519;45.408;10.962;2023-08-12T10:23:58;101212.13;;;32.21;41.59
45813;BME280;31519;45.408;10.962;2023-08-12T10:26:26;101207.81;;;32.20;41.63
45813;BME280;31519;45.408;10.962;2023-08-12T10:28:54;101205.84;;;32.62;40.67
45813;BME280;31519;45.408;10.962;2023-08-12T10:31:22;101206.38;;;33.49;39.75
45813;BME280;31519;45.408;10.962;2023-08-12T10:33:50;101204.06;;;33.09;39.22
45813;BME280;31519;45.408;10.962;2023-08-12T10:36:18;101205.38;;;32.79;40.63
45813;BME280;31519;45.408;10.962;2023-08-12T10:38:47;101194.09;;;31.39;43.25
45813;BME280;31519;45.408;10.962;2023-08-12T10:41:18;101189.34;;;31.88;42.76
45813;BME280;31519;45.408;10.962;2023-08-12T10:46:22;101183.03;;;32.03;42.23
45813;BME280;31519;45.408;10.962;2023-08-12T10:49:07;101188.94;;;32.47;41.30
45813;BME280;31519;45.408;10.962;2023-08-12T10:51:48;101181.19;;;32.71;41.26
45813;BME280;31519;45.408;10.962;2023-08-12T11:02:17;101164.75;;;33.30;40.87
45813;BME280;31519;45.408;10.962;2023-08-12T11:04:56;101165.63;;;33.40;39.82
45813;BME280;31519;45.408;10.962;2023-08-12T11:12:34;101168.09;;;33.25;40.43
45813;BME280;31519;45.408;10.962;2023-08-12T11:15:02;101165.63;;;33.02;40.56
45813;BME280;31519;45.408;10.962;2023-08-12T11:17:32;101161.44;;;33.23;40.92
45813;BME280;31519;45.408;10.962;2023-08-12T11:20:01;101159.53;;;32.82;41.15
45813;BME280;31519;45.408;10.962;2023-08-12T11:22:33;101159.44;;;32.98;41.67
45813;BME280;31519;45.408;10.962;2023-08-12T11:25:05;101155.34;;;32.77;41.18
45813;BME280;31519;45.408;10.962;2023-08-12T11:27:39;101159.06;;;32.17;42.76
45813;BME280;31519;45.408;10.962;2023-08-12T11:30:08;101153.06;;;32.47;42.11
45813;BME280;31519;45.408;10.962;2023-08-12T11:32:38;101143.31;;;32.96;41.09
45813;BME280;31519;45.408;10.962;2023-08-12T11:35:07;101153.59;;;32.96;41.06
45813;BME280;31519;45.408;10.962;2023-08-12T11:37:36;101141.22;;;33.01;40.37
45813;BME280;31519;45.408;10.962;2023-08-12T11:40:06;101148.06;;;33.34;40.33
45813;BME280;31519;45.408;10.962;2023-08-12T11:42:36;101142.84;;;33.49;39.86
45813;BME280;31519;45.408;10.962;2023-08-12T11:45:06;101143.22;;;34.50;37.76
45813;BME280;31519;45.408;10.962;2023-08-12T11:47:35;101137.50;;;35.15;37.20
45813;BME280;31519;45.408;10.962;2023-08-12T11:50:03;101138.66;;;35.36;36.13
45813;BME280;31519;45.408;10.962;2023-08-12T11:52:31;101131.31;;;36.06;35.47
45813;BME280;31519;45.408;10.962;2023-08-12T11:54:59;101123.47;;;35.68;35.21
45813;BME280;31519;45.408;10.962;2023-08-12T11:57:27;101136.47;;;35.22;35.63
45813;BME280;31519;45.408;10.962;2023-08-12T12:00:03;101128.66;;;34.28;37.60
45813;BME280;31519;45.408;10.962;2023-08-12T12:02:48;101127.53;;;34.04;37.96
45813;BME280;31519;45.408;10.962;2023-08-12T12:05:20;101126.44;;;34.45;37.70
45813;BME280;31519;45.408;10.962;2023-08-12T12:07:51;101119.31;;;33.91;38.40
45813;BME280;31519;45.408;10.962;2023-08-12T12:10:31;101111.53;;;34.20;38.12
45813;BME280;31519;45.408;10.962;2023-08-12T12:13:02;101103.25;;;34.51;37.81
45813;BME280;31519;45.408;10.962;2023-08-12T12:15:31;101108.97;;;34.26;37.67
45813;BME280;31519;45.408;10.962;2023-08-12T12:18:13;101114.00;;;34.49;36.98
45813;BME280;31519;45.408;10.962;2023-08-12T12:20:53;101111.75;;;34.88;37.09
45813;BME280;31519;45.408;10.962;2023-08-12T12:23:22;101109.47;;;34.95;36.57
45813;BME280;31519;45.408;10.962;2023-08-12T12:25:56;101105.44;;;35.64;35.86
45813;BME280;31519;45.408;10.962;2023-08-12T12:28:24;101109.88;;;35.43;34.89
45813;BME280;31519;45.408;10.962;2023-08-12T12:30:53;101104.19;;;34.05;37.42
45813;BME280;31519;45.408;10.962;2023-08-12T12:33:21;101100.50;;;34.82;36.85
45813;BME280;31519;45.408;10.962;2023-08-12T12:35:49;101092.03;;;35.62;35.20
45813;BME280;31519;45.408;10.962;2023-08-12T12:38:25;101090.09;;;34.12;37.64
45813;BME280;31519;45.408;10.962;2023-08-12T12:40:53;101093.25;;;34.85;36.61
45813;BME280;31519;45.408;10.962;2023-08-12T12:43:21;101097.25;;;34.84;36.17
45813;BME280;31519;45.408;10.962;2023-08-12T12:45:49;101091.78;;;34.31;37.48
45813;BME280;31519;45.408;10.962;2023-08-12T12:48:16;101088.91;;;34.75;36.94
45813;BME280;31519;45.408;10.962;2023-08-12T12:50:45;101083.25;;;35.64;35.27
45813;BME280;31519;45.408;10.962;2023-08-12T12:53:13;101086.19;;;36.57;33.92
45813;BME280;31519;45.408;10.962;2023-08-12T12:55:41;101085.38;;;36.98;33.48
45813;BME280;31519;45.408;10.962;2023-08-12T12:58:09;101086.31;;;36.20;34.04
45813;BME280;31519;45.408;10.962;2023-08-12T13:00:39;101079.44;;;34.94;35.84
45813;BME280;31519;45.408;10.962;2023-08-12T13:03:06;101082.31;;;35.57;35.08
45813;BME280;31519;45.408;10.962;2023-08-12T13:05:35;101081.44;;;36.48;33.61
45813;BME280;31519;45.408;10.962;2023-08-12T13:08:03;101086.84;;;34.97;36.24
45813;BME280;31519;45.408;10.962;2023-08-12T13:10:31;101087.22;;;34.37;36.51
45813;BME280;31519;45.408;10.962;2023-08-12T13:12:59;101082.78;;;35.29;35.82
45813;BME280;31519;45.408;10.962;2023-08-12T13:15:27;101075.53;;;36.13;34.72
45813;BME280;31519;45.408;10.962;2023-08-12T13:17:55;101068.16;;;36.85;33.05
45813;BME280;31519;45.408;10.962;2023-08-12T13:20:23;101070.16;;;36.52;33.20
45813;BME280;31519;45.408;10.962;2023-08-12T13:22:51;101067.03;;;36.59;33.28
45813;BME280;31519;45.408;10.962;2023-08-12T13:25:19;101059.19;;;36.90;32.71
45813;BME280;31519;45.408;10.962;2023-08-12T13:27:46;101063.78;;;36.27;33.66
45813;BME280;31519;45.408;10.962;2023-08-12T13:30:15;101062.94;;;34.41;37.84
45813;BME280;31519;45.408;10.962;2023-08-12T13:32:42;101054.50;;;34.85;36.62
45813;BME280;31519;45.408;10.962;2023-08-12T13:35:10;101051.06;;;35.48;35.41
45813;BME280;31519;45.408;10.962;2023-08-12T13:37:38;101048.06;;;34.48;36.81
45813;BME280;31519;45.408;10.962;2023-08-12T13:40:06;101045.84;;;35.23;35.78
45813;BME280;31519;45.408;10.962;2023-08-12T13:42:34;101046.03;;;35.74;34.46
45813;BME280;31519;45.408;10.962;2023-08-12T13:45:02;101045.31;;;36.24;34.15
45813;BME280;31519;45.408;10.962;2023-08-12T13:47:31;101042.47;;;36.99;32.96
45813;BME280;31519;45.408;10.962;2023-08-12T13:49:59;101034.63;;;36.98;32.63
45813;BME280;31519;45.408;10.962;2023-08-12T13:52:26;101029.47;;;36.49;32.96
45813;BME280;31519;45.408;10.962;2023-08-12T13:54:55;101036.44;;;36.77;32.73
45813;BME280;31519;45.408;10.962;2023-08-12T13:57:23;101024.34;;;36.23;33.69
45813;BME280;31519;45.408;10.962;2023-08-12T13:59:52;101017.28;;;37.12;32.60